Flevoborg — PBMH — position and weather

sailwx.info

Track history (hours):
 
Tides and Currents Weather Stations Pressure Air Temp Water Temp Dewpoint Dewpoint Depression Visibility Wind Speed Wind Dir Waves Ship Positions

Flevoborg

Last reported at 2018-Feb-20 18:42 UTC. Time now 2018-Feb-21 11:43 UTC.
Position N 36°47' W 009°31'.

Length 155 m; draft 8.4 m.

Type: Ship. MMSI: 245226000.

Date/timePositionNaut miles runAvg speedWind from/ knotsBaromVisibWave heightAir tempDewpointWater temp
2018-Feb-20 18:42N 36°47' W 009°31'2 9.7
2018-Feb-20 18:28N 36°48' W 009°33'5 9.9
2018-Feb-20 18:00N 36°53' W 009°34'5 9.9
2018-Feb-20 17:30N 36°58' W 009°35'510.0
2018-Feb-20 17:00N 37°03' W 009°37'5 9.8
2018-Feb-20 16:29N 37°08' W 009°38'5 9.6
2018-Feb-20 15:57N 37°13' W 009°40'4 9.9
2018-Feb-20 15:30N 37°17' W 009°41'1110.0
2018-Feb-20 14:23N 37°28' W 009°44'410.1
2018-Feb-20 14:00N 37°31' W 009°45'510.4
2018-Feb-20 13:30N 37°37' W 009°47'610.1
2018-Feb-20 12:55N 37°42' W 009°48'4 9.8
2018-Feb-20 12:30N 37°46' W 009°49'10 9.8
2018-Feb-20 11:27N 37°56' W 009°52'510.4
2018-Feb-20 11:00N 38°01' W 009°54'510.4
2018-Feb-20 10:30N 38°06' W 009°55'510.4
2018-Feb-20 09:59N 38°11' W 009°57'510.3
2018-Feb-20 09:30N 38°16' W 009°58'510.1
2018-Feb-20 09:00N 38°21' W 009°60'5 9.9
2018-Feb-20 08:30N 38°26' W 010°01'510.0
2018-Feb-20 08:00N 38°31' W 010°02'26 9.9
2018-Feb-20 05:22N 38°57' W 010°06'4 9.6
2018-Feb-20 04:59N 39°00' W 010°06'5 9.7
2018-Feb-20 04:30N 39°05' W 010°06'  
2018-Feb-17 04:17N 49°49' W 003°21'311.1
2018-Feb-17 04:00N 49°50' W 003°17'611.8
2018-Feb-17 03:29N 49°53' W 003°09'612.5
2018-Feb-17 03:00N 49°56' W 003°01'713.1
2018-Feb-17 02:27N 49°60' W 002°51'613.3
2018-Feb-17 02:00N 50°02' W 002°42'3512.0
2018-Feb-16 23:03N 50°11' W 001°49'1 9.6
2018-Feb-16 22:55N 50°11' W 001°47'54 9.3
2018-Feb-16 17:08N 50°26' W 000°26'212.2
2018-Feb-16 17:00N 50°26' W 000°23'612.6
2018-Feb-16 16:31N 50°28' W 000°14'612.6
2018-Feb-16 16:00N 50°30' W 000°04'612.7
2018-Feb-16 15:30N 50°31' E 000°05'612.6
2018-Feb-16 15:00N 50°33' E 000°15'612.4
2018-Feb-16 14:30N 50°35' E 000°24'612.0
2018-Feb-16 14:00N 50°36' E 000°33'611.4
2018-Feb-16 13:30N 50°40' E 000°41'611.1
2018-Feb-16 13:00N 50°43' E 000°48'510.4
2018-Feb-16 12:30N 50°46' E 000°54'510.0
2018-Feb-16 12:00N 50°49' E 001°01'5 9.8
2018-Feb-16 11:30N 50°52' E 001°07'5 9.8
2018-Feb-16 10:57N 50°56' E 001°13'410.0
2018-Feb-16 10:31N 50°59' E 001°18'510.9
2018-Feb-16 10:00N 51°03' E 001°24'612.6
2018-Feb-16 09:30N 51°07' E 001°32'713.7
2018-Feb-16 09:00N 51°11' E 001°40'713.5
2018-Feb-16 08:30N 51°16' E 001°47'713.6
2018-Feb-16 08:00N 51°22' E 001°52'612.9
2018-Feb-16 07:30N 51°28' E 001°58'612.2
2018-Feb-16 07:00N 51°32' E 002°05'611.7
2018-Feb-16 06:30N 51°37' E 002°11'611.2
2018-Feb-16 06:00N 51°41' E 002°17'78 9.8
2018-Feb-15 22:00N 52°31' E 003°55'611.3
2018-Feb-15 21:30N 52°31' E 004°04'611.3
2018-Feb-15 21:00N 52°31' E 004°14'611.2
2018-Feb-15 20:30N 52°29' E 004°23'5 9.6
2018-Feb-15 20:00N 52°28' E 004°30'4 7.6
2018-Feb-15 19:30N 52°28' E 004°36'0 0.1
2018-Feb-15 18:59N 52°28' E 004°36'0 0.0
2018-Feb-15 18:29N 52°28' E 004°36'0 0.0
2018-Feb-15 17:56N 52°28' E 004°36'0 0.0
2018-Feb-15 17:29N 52°28' E 004°36'0 0.0
2018-Feb-15 16:59N 52°28' E 004°36'0 0.0
2018-Feb-15 16:29N 52°28' E 004°36'0 0.0
2018-Feb-15 15:53N 52°28' E 004°36'0 0.0
2018-Feb-15 15:29N 52°28' E 004°36'0 0.0
2018-Feb-15 14:59N 52°28' E 004°36'0 0.0
2018-Feb-15 14:29N 52°28' E 004°36'0 0.0
2018-Feb-15 13:56N 52°28' E 004°36'0 0.0
2018-Feb-15 13:29N 52°28' E 004°36'0 0.0
2018-Feb-15 12:59N 52°28' E 004°36'0 0.0
2018-Feb-15 12:29N 52°28' E 004°36'0 0.0
2018-Feb-15 11:56N 52°28' E 004°36'0 0.0
2018-Feb-15 11:29N 52°28' E 004°36'0 0.0
2018-Feb-15 10:59N 52°28' E 004°36'0 0.0
2018-Feb-15 10:29N 52°28' E 004°36'0 0.0
2018-Feb-15 09:59N 52°28' E 004°36'0 0.0
2018-Feb-15 09:23N 52°28' E 004°36'0 0.0
2018-Feb-15 08:59N 52°28' E 004°36'0 0.0
2018-Feb-15 08:20N 52°28' E 004°36'0 0.0
2018-Feb-15 07:56N 52°28' E 004°36'0 0.0
2018-Feb-15 07:29N 52°28' E 004°36'0 0.0
2018-Feb-15 06:56N 52°28' E 004°36'0 0.0
2018-Feb-15 06:23N 52°28' E 004°36'0 0.0
2018-Feb-15 05:53N 52°28' E 004°36'0 0.0
2018-Feb-15 05:26N 52°28' E 004°36'0 0.0
2018-Feb-15 04:59N 52°28' E 004°36'0 0.0
2018-Feb-15 04:29N 52°28' E 004°36'0 0.0
2018-Feb-15 03:59N 52°28' E 004°36'0 0.0
2018-Feb-15 03:29N 52°28' E 004°36'0 0.0
2018-Feb-15 02:59N 52°28' E 004°36'0 0.0
2018-Feb-15 02:29N 52°28' E 004°36'0 0.0
2018-Feb-15 01:59N 52°28' E 004°36'0 0.0
2018-Feb-15 01:23N 52°28' E 004°36'0 0.0
2018-Feb-15 00:59N 52°28' E 004°36'0 0.0
2018-Feb-15 00:29N 52°28' E 004°36'0 0.0
2018-Feb-14 23:59N 52°28' E 004°36'0 0.0
2018-Feb-14 23:29N 52°28' E 004°36'0 0.0
2018-Feb-14 22:59N 52°28' E 004°36'0 0.0
2018-Feb-14 22:29N 52°28' E 004°36'0 0.0
2018-Feb-14 21:59N 52°28' E 004°36'0 0.0
2018-Feb-14 21:29N 52°28' E 004°36'0 0.0
2018-Feb-14 20:56N 52°28' E 004°36'0 0.0
2018-Feb-14 20:20N 52°28' E 004°36'0 0.0
2018-Feb-14 19:59N 52°28' E 004°36'0 0.0
2018-Feb-14 19:29N 52°28' E 004°36'0 0.0
2018-Feb-14 18:56N 52°28' E 004°36'0 0.0
2018-Feb-14 18:23N 52°28' E 004°36'0 0.0
2018-Feb-14 17:56N 52°28' E 004°36'0 0.0
2018-Feb-14 17:29N 52°28' E 004°36'0 0.0
2018-Feb-14 16:59N 52°28' E 004°36'0 0.0
2018-Feb-14 16:29N 52°28' E 004°36'0 0.0
2018-Feb-14 15:59N 52°28' E 004°36'0 0.0
2018-Feb-14 15:29N 52°28' E 004°36'0 0.0
2018-Feb-14 14:59N 52°28' E 004°36'0 0.0
2018-Feb-14 14:14N 52°28' E 004°36'0 0.0
2018-Feb-14 13:59N 52°28' E 004°36'0 0.0
2018-Feb-14 13:29N 52°28' E 004°36'0 0.0
2018-Feb-14 12:59N 52°28' E 004°36'0 0.0
2018-Feb-14 12:29N 52°28' E 004°36'0 0.0
2018-Feb-14 11:56N 52°28' E 004°36'0 0.0
2018-Feb-14 11:29N 52°28' E 004°36'0 0.0
2018-Feb-14 10:59N 52°28' E 004°36'0 0.0
2018-Feb-14 10:29N 52°28' E 004°36'0 0.0
2018-Feb-14 09:59N 52°28' E 004°36'0 0.0
2018-Feb-14 09:29N 52°28' E 004°36'0 0.0
2018-Feb-14 08:59N 52°28' E 004°36'0 0.0
2018-Feb-14 08:29N 52°28' E 004°36'0 0.0
2018-Feb-14 07:56N 52°28' E 004°36'0 0.0
2018-Feb-14 07:29N 52°28' E 004°36'0 0.0
2018-Feb-14 06:59N 52°28' E 004°36'0 0.0
2018-Feb-14 06:23N 52°28' E 004°36'0 0.0
2018-Feb-14 05:59N 52°28' E 004°36'0 0.0
2018-Feb-14 05:29N 52°28' E 004°36'0 0.0
2018-Feb-14 04:59N 52°28' E 004°36'0 0.0
2018-Feb-14 04:29N 52°28' E 004°36'0 0.0
2018-Feb-14 03:59N 52°28' E 004°36'0 0.0
2018-Feb-14 03:29N 52°28' E 004°36'0 0.0
2018-Feb-14 02:56N 52°28' E 004°36'0 0.0
2018-Feb-14 02:29N 52°28' E 004°36'0 0.0
2018-Feb-14 01:56N 52°28' E 004°36'0 0.0
2018-Feb-14 01:29N 52°28' E 004°36'0 0.0
2018-Feb-14 00:56N 52°28' E 004°36'0 0.0
2018-Feb-14 00:29N 52°28' E 004°36'0 0.0
2018-Feb-13 23:59N 52°28' E 004°36'0 0.0
2018-Feb-13 23:26N 52°28' E 004°36'0 0.0
2018-Feb-13 22:59N 52°28' E 004°36'0 0.0
2018-Feb-13 22:29N 52°28' E 004°36'0 0.0
2018-Feb-13 21:59N 52°28' E 004°36'0 0.0
2018-Feb-13 21:29N 52°28' E 004°36'0 0.0
2018-Feb-13 20:56N 52°28' E 004°36'0 0.0
2018-Feb-13 20:29N 52°28' E 004°36'0 0.0
2018-Feb-13 19:59N 52°28' E 004°36'0 0.0
2018-Feb-13 19:26N 52°28' E 004°36'0 0.0
2018-Feb-13 18:50N 52°28' E 004°36'0 0.0
2018-Feb-13 18:29N 52°28' E 004°36'0 0.0
2018-Feb-13 17:56N 52°28' E 004°36'0 0.0
2018-Feb-13 17:29N 52°28' E 004°36'0 0.0
2018-Feb-13 16:59N 52°28' E 004°36'0 0.0
2018-Feb-13 16:26N 52°28' E 004°36'0 0.0
2018-Feb-13 15:56N 52°28' E 004°36'0 0.0
2018-Feb-13 15:29N 52°28' E 004°36'0 0.0
2018-Feb-13 14:59N 52°28' E 004°36'0 0.0
2018-Feb-13 14:26N 52°28' E 004°36'0 0.0
2018-Feb-13 13:59N 52°28' E 004°36'0 0.0
2018-Feb-13 13:29N 52°28' E 004°36'0 0.0
2018-Feb-13 12:59N 52°28' E 004°36'0 0.0
2018-Feb-13 12:26N 52°28' E 004°36'0 0.0
2018-Feb-13 11:59N 52°28' E 004°36'0 0.0
2018-Feb-13 11:29N 52°28' E 004°36'0 0.0
2018-Feb-13 10:59N 52°28' E 004°36'0 0.0
2018-Feb-13 10:29N 52°28' E 004°36'0 0.0
2018-Feb-13 09:59N 52°28' E 004°36'0 0.0
2018-Feb-13 09:29N 52°28' E 004°36'0 0.0
2018-Feb-13 08:59N 52°28' E 004°36'0 0.0
2018-Feb-13 08:29N 52°28' E 004°36'0 0.0
2018-Feb-13 07:59N 52°28' E 004°36'0 0.0
2018-Feb-13 07:29N 52°28' E 004°36'0 0.0
2018-Feb-13 06:56N 52°28' E 004°36'0 0.0
2018-Feb-13 06:26N 52°28' E 004°36'0 0.0
2018-Feb-13 05:56N 52°28' E 004°36'0 0.0
2018-Feb-13 05:29N 52°28' E 004°36'0 0.0
2018-Feb-13 04:59N 52°28' E 004°36'0 0.0
2018-Feb-13 04:29N 52°28' E 004°36'0 0.0
2018-Feb-13 03:59N 52°28' E 004°36'0 0.0
2018-Feb-13 03:29N 52°28' E 004°36'0 0.0
2018-Feb-13 02:59N 52°28' E 004°36'0 0.0
2018-Feb-13 02:29N 52°28' E 004°36'0 0.0
2018-Feb-13 01:59N 52°28' E 004°36'0 0.0
2018-Feb-13 01:11N 52°28' E 004°36'0 0.0
2018-Feb-13 00:59N 52°28' E 004°36'0 0.0
2018-Feb-13 00:29N 52°28' E 004°36'0 0.0
2018-Feb-12 23:59N 52°28' E 004°36'0 0.0
2018-Feb-12 23:26N 52°28' E 004°36'0 0.0
2018-Feb-12 22:56N 52°28' E 004°36'0 0.0
2018-Feb-12 22:29N 52°28' E 004°36'0 0.0
2018-Feb-12 21:56N 52°28' E 004°36'0 0.0
2018-Feb-12 21:29N 52°28' E 004°36'0 0.0
2018-Feb-12 20:59N 52°28' E 004°36'0 0.0
2018-Feb-12 20:29N 52°28' E 004°36'0 0.0
2018-Feb-12 19:59N 52°28' E 004°36'0 0.1
2018-Feb-12 19:23N 52°28' E 004°36'0 0.0
2018-Feb-12 18:59N 52°28' E 004°36'0 0.0
2018-Feb-12 18:29N 52°28' E 004°36'0 0.0
2018-Feb-12 17:59N 52°28' E 004°36'0 0.0
2018-Feb-12 17:29N 52°28' E 004°36'0 0.0
2018-Feb-12 16:59N 52°28' E 004°36'0 0.0
2018-Feb-12 16:29N 52°28' E 004°36'0 0.0
2018-Feb-12 15:59N 52°28' E 004°36'0 0.0
2018-Feb-12 15:17N 52°28' E 004°36'0 0.0
2018-Feb-12 14:59N 52°28' E 004°36'0 0.0
2018-Feb-12 14:29N 52°28' E 004°36'0 0.0
2018-Feb-12 13:56N 52°28' E 004°36'0 0.0
2018-Feb-12 13:29N 52°28' E 004°36'0 0.0
2018-Feb-12 12:59N 52°28' E 004°36'0 0.0
2018-Feb-12 12:29N 52°28' E 004°36'0 0.0
2018-Feb-12 11:59N 52°28' E 004°36'0 0.0
2018-Feb-12 11:29N 52°28' E 004°36'0 0.0
2018-Feb-12 10:59N 52°28' E 004°36'0 0.0
2018-Feb-12 10:29N 52°28' E 004°36'0 0.0
2018-Feb-12 09:56N 52°28' E 004°36'0 0.0
2018-Feb-12 09:29N 52°28' E 004°36'0 0.0
2018-Feb-12 08:59N 52°28' E 004°36'0 0.0
2018-Feb-12 08:29N 52°28' E 004°36'0 0.0
2018-Feb-12 07:59N 52°28' E 004°36'0 0.0
2018-Feb-12 07:29N 52°28' E 004°36'0 0.0
2018-Feb-12 06:56N 52°28' E 004°36'0 0.0
2018-Feb-12 06:29N 52°28' E 004°36'0 0.0
2018-Feb-12 05:59N 52°28' E 004°36'0 0.0
2018-Feb-12 05:29N 52°28' E 004°36'0 0.0
2018-Feb-12 04:59N 52°28' E 004°36'0 0.0
2018-Feb-12 04:29N 52°28' E 004°36'0 0.0
2018-Feb-12 03:59N 52°28' E 004°36'0 0.0
2018-Feb-12 03:29N 52°28' E 004°36'0 0.0
2018-Feb-12 02:59N 52°28' E 004°36'0 0.0
2018-Feb-12 02:29N 52°28' E 004°36'0 0.0
2018-Feb-12 01:59N 52°28' E 004°36'0 0.0
2018-Feb-12 01:26N 52°28' E 004°36'0 0.0
2018-Feb-12 00:59N 52°28' E 004°36'0 0.0
2018-Feb-12 00:29N 52°28' E 004°36'0 0.0
2018-Feb-11 23:59N 52°28' E 004°36'0 0.0
2018-Feb-11 23:29N 52°28' E 004°36'0 0.0
2018-Feb-11 22:59N 52°28' E 004°36'0 0.0
2018-Feb-11 22:29N 52°28' E 004°36'0 0.0
2018-Feb-11 21:56N 52°28' E 004°36'0 0.0
2018-Feb-11 21:29N 52°28' E 004°36'0 0.0
2018-Feb-11 20:59N 52°28' E 004°36'0 0.0
2018-Feb-11 20:29N 52°28' E 004°36'0 0.0
2018-Feb-11 19:56N 52°28' E 004°36'0 0.0
2018-Feb-11 19:29N 52°28' E 004°36'0 0.0
2018-Feb-11 18:59N 52°28' E 004°36'0 0.0
2018-Feb-11 18:28N 52°28' E 004°36'0 0.0
2018-Feb-11 17:58N 52°28' E 004°36'0 0.0
2018-Feb-11 17:28N 52°28' E 004°36'0 0.0
2018-Feb-11 16:55N 52°28' E 004°36'0 0.0
2018-Feb-11 16:28N 52°28' E 004°36'0 0.0
2018-Feb-11 15:58N 52°28' E 004°36'0 0.0
2018-Feb-11 15:28N 52°28' E 004°36'0 0.0
2018-Feb-11 14:58N 52°28' E 004°36'0 0.0
2018-Feb-11 14:25N 52°28' E 004°36'0 0.0
2018-Feb-11 13:58N 52°28' E 004°36'0 0.0
2018-Feb-11 13:28N 52°28' E 004°36'0 0.0
2018-Feb-11 12:58N 52°28' E 004°36'0 0.0
2018-Feb-11 12:28N 52°28' E 004°36'0 0.0
2018-Feb-11 11:58N 52°28' E 004°36'0 0.0
2018-Feb-11 11:28N 52°28' E 004°36'0 0.0
2018-Feb-11 10:55N 52°28' E 004°36'0 0.0
2018-Feb-11 10:28N 52°28' E 004°36'0 0.0
2018-Feb-11 09:58N 52°28' E 004°36'0 0.0
2018-Feb-11 09:28N 52°28' E 004°36'0 0.0
2018-Feb-11 08:58N 52°28' E 004°36'0 0.0
2018-Feb-11 08:28N 52°28' E 004°36'0 0.0
2018-Feb-11 07:52N 52°28' E 004°36'0 0.0
2018-Feb-11 07:28N 52°28' E 004°36'0 0.0
2018-Feb-11 06:43N 52°28' E 004°36'0 0.0
2018-Feb-11 06:28N 52°28' E 004°36'0 0.0
2018-Feb-11 05:52N 52°28' E 004°36'0 0.0
2018-Feb-11 05:28N 52°28' E 004°36'0 0.0
2018-Feb-11 04:58N 52°28' E 004°36'0 0.0
2018-Feb-11 04:28N 52°28' E 004°36'0 0.0
2018-Feb-11 03:58N 52°28' E 004°36'0 0.0
2018-Feb-11 03:28N 52°28' E 004°36'0 0.0
2018-Feb-11 02:55N 52°28' E 004°36'0 0.0
2018-Feb-11 02:28N 52°28' E 004°36'0 0.0
2018-Feb-11 01:58N 52°28' E 004°36'0 0.0
2018-Feb-11 01:28N 52°28' E 004°36'0 0.0
2018-Feb-11 00:58N 52°28' E 004°36'0 0.0
2018-Feb-11 00:28N 52°28' E 004°36'0 0.0
2018-Feb-10 23:58N 52°28' E 004°36'0 0.0
2018-Feb-10 23:28N 52°28' E 004°36'0 0.0
2018-Feb-10 22:58N 52°28' E 004°36'0 0.0
2018-Feb-10 22:28N 52°28' E 004°36'0 0.0
2018-Feb-10 21:55N 52°28' E 004°36'0 0.0
2018-Feb-10 21:28N 52°28' E 004°36'0 0.0
2018-Feb-10 20:58N 52°28' E 004°36'0 0.0
2018-Feb-10 20:28N 52°28' E 004°36'0 0.0
2018-Feb-10 19:58N 52°28' E 004°36'0 0.0
2018-Feb-10 19:28N 52°28' E 004°36'0 0.0
2018-Feb-10 18:58N 52°28' E 004°36'  
Track history (hours):
 
Tides and Currents Weather Stations Pressure Air Temp Water Temp Dewpoint Dewpoint Depression Visibility Wind Speed Wind Dir Waves Ship Positions

Flevoborg

Last reported at 2018-Feb-20 18:42 UTC. Time now 2018-Feb-21 11:43 UTC.
Position N 36°47' W 009°31'.

Length 155 m; draft 8.4 m.

Type: Ship. MMSI: 245226000.

Date/timePositionNaut miles runAvg speedWind from/ knotsBaromVisibWave heightAir tempDewpointWater temp
2018-Feb-20 18:42N 36°47' W 009°31'2 9.7
2018-Feb-20 18:28N 36°48' W 009°33'5 9.9
2018-Feb-20 18:00N 36°53' W 009°34'5 9.9
2018-Feb-20 17:30N 36°58' W 009°35'510.0
2018-Feb-20 17:00N 37°03' W 009°37'5 9.8
2018-Feb-20 16:29N 37°08' W 009°38'5 9.6
2018-Feb-20 15:57N 37°13' W 009°40'4 9.9
2018-Feb-20 15:30N 37°17' W 009°41'1110.0
2018-Feb-20 14:23N 37°28' W 009°44'410.1
2018-Feb-20 14:00N 37°31' W 009°45'510.4
2018-Feb-20 13:30N 37°37' W 009°47'610.1
2018-Feb-20 12:55N 37°42' W 009°48'4 9.8
2018-Feb-20 12:30N 37°46' W 009°49'10 9.8
2018-Feb-20 11:27N 37°56' W 009°52'510.4
2018-Feb-20 11:00N 38°01' W 009°54'510.4
2018-Feb-20 10:30N 38°06' W 009°55'510.4
2018-Feb-20 09:59N 38°11' W 009°57'510.3
2018-Feb-20 09:30N 38°16' W 009°58'510.1
2018-Feb-20 09:00N 38°21' W 009°60'5 9.9
2018-Feb-20 08:30N 38°26' W 010°01'510.0
2018-Feb-20 08:00N 38°31' W 010°02'26 9.9
2018-Feb-20 05:22N 38°57' W 010°06'4 9.6
2018-Feb-20 04:59N 39°00' W 010°06'5 9.7
2018-Feb-20 04:30N 39°05' W 010°06'  
2018-Feb-17 04:17N 49°49' W 003°21'311.1
2018-Feb-17 04:00N 49°50' W 003°17'611.8
2018-Feb-17 03:29N 49°53' W 003°09'612.5
2018-Feb-17 03:00N 49°56' W 003°01'713.1
2018-Feb-17 02:27N 49°60' W 002°51'613.3
2018-Feb-17 02:00N 50°02' W 002°42'3512.0
2018-Feb-16 23:03N 50°11' W 001°49'1 9.6
2018-Feb-16 22:55N 50°11' W 001°47'54 9.3
2018-Feb-16 17:08N 50°26' W 000°26'212.2
2018-Feb-16 17:00N 50°26' W 000°23'612.6
2018-Feb-16 16:31N 50°28' W 000°14'612.6
2018-Feb-16 16:00N 50°30' W 000°04'612.7
2018-Feb-16 15:30N 50°31' E 000°05'612.6
2018-Feb-16 15:00N 50°33' E 000°15'612.4
2018-Feb-16 14:30N 50°35' E 000°24'612.0
2018-Feb-16 14:00N 50°36' E 000°33'611.4
2018-Feb-16 13:30N 50°40' E 000°41'611.1
2018-Feb-16 13:00N 50°43' E 000°48'510.4
2018-Feb-16 12:30N 50°46' E 000°54'510.0
2018-Feb-16 12:00N 50°49' E 001°01'5 9.8
2018-Feb-16 11:30N 50°52' E 001°07'5 9.8
2018-Feb-16 10:57N 50°56' E 001°13'410.0
2018-Feb-16 10:31N 50°59' E 001°18'510.9
2018-Feb-16 10:00N 51°03' E 001°24'612.6
2018-Feb-16 09:30N 51°07' E 001°32'713.7
2018-Feb-16 09:00N 51°11' E 001°40'713.5
2018-Feb-16 08:30N 51°16' E 001°47'713.6
2018-Feb-16 08:00N 51°22' E 001°52'612.9
2018-Feb-16 07:30N 51°28' E 001°58'612.2
2018-Feb-16 07:00N 51°32' E 002°05'611.7
2018-Feb-16 06:30N 51°37' E 002°11'611.2
2018-Feb-16 06:00N 51°41' E 002°17'78 9.8
2018-Feb-15 22:00N 52°31' E 003°55'611.3
2018-Feb-15 21:30N 52°31' E 004°04'611.3
2018-Feb-15 21:00N 52°31' E 004°14'611.2
2018-Feb-15 20:30N 52°29' E 004°23'5 9.6
2018-Feb-15 20:00N 52°28' E 004°30'4 7.6
2018-Feb-15 19:30N 52°28' E 004°36'0 0.1
2018-Feb-15 18:59N 52°28' E 004°36'0 0.0
2018-Feb-15 18:29N 52°28' E 004°36'0 0.0
2018-Feb-15 17:56N 52°28' E 004°36'0 0.0
2018-Feb-15 17:29N 52°28' E 004°36'0 0.0
2018-Feb-15 16:59N 52°28' E 004°36'0 0.0
2018-Feb-15 16:29N 52°28' E 004°36'0 0.0
2018-Feb-15 15:53N 52°28' E 004°36'0 0.0
2018-Feb-15 15:29N 52°28' E 004°36'0 0.0
2018-Feb-15 14:59N 52°28' E 004°36'0 0.0
2018-Feb-15 14:29N 52°28' E 004°36'0 0.0
2018-Feb-15 13:56N 52°28' E 004°36'0 0.0
2018-Feb-15 13:29N 52°28' E 004°36'0 0.0
2018-Feb-15 12:59N 52°28' E 004°36'0 0.0
2018-Feb-15 12:29N 52°28' E 004°36'0 0.0
2018-Feb-15 11:56N 52°28' E 004°36'0 0.0
2018-Feb-15 11:29N 52°28' E 004°36'0 0.0
2018-Feb-15 10:59N 52°28' E 004°36'0 0.0
2018-Feb-15 10:29N 52°28' E 004°36'0 0.0
2018-Feb-15 09:59N 52°28' E 004°36'0 0.0
2018-Feb-15 09:23N 52°28' E 004°36'0 0.0
2018-Feb-15 08:59N 52°28' E 004°36'0 0.0
2018-Feb-15 08:20N 52°28' E 004°36'0 0.0
2018-Feb-15 07:56N 52°28' E 004°36'0 0.0
2018-Feb-15 07:29N 52°28' E 004°36'0 0.0
2018-Feb-15 06:56N 52°28' E 004°36'0 0.0
2018-Feb-15 06:23N 52°28' E 004°36'0 0.0
2018-Feb-15 05:53N 52°28' E 004°36'0 0.0
2018-Feb-15 05:26N 52°28' E 004°36'0 0.0
2018-Feb-15 04:59N 52°28' E 004°36'0 0.0
2018-Feb-15 04:29N 52°28' E 004°36'0 0.0
2018-Feb-15 03:59N 52°28' E 004°36'0 0.0
2018-Feb-15 03:29N 52°28' E 004°36'0 0.0
2018-Feb-15 02:59N 52°28' E 004°36'0 0.0
2018-Feb-15 02:29N 52°28' E 004°36'0 0.0
2018-Feb-15 01:59N 52°28' E 004°36'0 0.0
2018-Feb-15 01:23N 52°28' E 004°36'0 0.0
2018-Feb-15 00:59N 52°28' E 004°36'0 0.0
2018-Feb-15 00:29N 52°28' E 004°36'0 0.0
2018-Feb-14 23:59N 52°28' E 004°36'0 0.0
2018-Feb-14 23:29N 52°28' E 004°36'0 0.0
2018-Feb-14 22:59N 52°28' E 004°36'0 0.0
2018-Feb-14 22:29N 52°28' E 004°36'0 0.0
2018-Feb-14 21:59N 52°28' E 004°36'0 0.0
2018-Feb-14 21:29N 52°28' E 004°36'0 0.0
2018-Feb-14 20:56N 52°28' E 004°36'0 0.0
2018-Feb-14 20:20N 52°28' E 004°36'0 0.0
2018-Feb-14 19:59N 52°28' E 004°36'0 0.0
2018-Feb-14 19:29N 52°28' E 004°36'0 0.0
2018-Feb-14 18:56N 52°28' E 004°36'0 0.0
2018-Feb-14 18:23N 52°28' E 004°36'0 0.0
2018-Feb-14 17:56N 52°28' E 004°36'0 0.0
2018-Feb-14 17:29N 52°28' E 004°36'0 0.0
2018-Feb-14 16:59N 52°28' E 004°36'0 0.0
2018-Feb-14 16:29N 52°28' E 004°36'0 0.0
2018-Feb-14 15:59N 52°28' E 004°36'0 0.0
2018-Feb-14 15:29N 52°28' E 004°36'0 0.0
2018-Feb-14 14:59N 52°28' E 004°36'0 0.0
2018-Feb-14 14:14N 52°28' E 004°36'0 0.0
2018-Feb-14 13:59N 52°28' E 004°36'0 0.0
2018-Feb-14 13:29N 52°28' E 004°36'0 0.0
2018-Feb-14 12:59N 52°28' E 004°36'0 0.0
2018-Feb-14 12:29N 52°28' E 004°36'0 0.0
2018-Feb-14 11:56N 52°28' E 004°36'0 0.0
2018-Feb-14 11:29N 52°28' E 004°36'0 0.0
2018-Feb-14 10:59N 52°28' E 004°36'0 0.0
2018-Feb-14 10:29N 52°28' E 004°36'0 0.0
2018-Feb-14 09:59N 52°28' E 004°36'0 0.0
2018-Feb-14 09:29N 52°28' E 004°36'0 0.0
2018-Feb-14 08:59N 52°28' E 004°36'0 0.0
2018-Feb-14 08:29N 52°28' E 004°36'0 0.0
2018-Feb-14 07:56N 52°28' E 004°36'0 0.0
2018-Feb-14 07:29N 52°28' E 004°36'0 0.0
2018-Feb-14 06:59N 52°28' E 004°36'0 0.0
2018-Feb-14 06:23N 52°28' E 004°36'0 0.0
2018-Feb-14 05:59N 52°28' E 004°36'0 0.0
2018-Feb-14 05:29N 52°28' E 004°36'0 0.0
2018-Feb-14 04:59N 52°28' E 004°36'0 0.0
2018-Feb-14 04:29N 52°28' E 004°36'0 0.0
2018-Feb-14 03:59N 52°28' E 004°36'0 0.0
2018-Feb-14 03:29N 52°28' E 004°36'0 0.0
2018-Feb-14 02:56N 52°28' E 004°36'0 0.0
2018-Feb-14 02:29N 52°28' E 004°36'0 0.0
2018-Feb-14 01:56N 52°28' E 004°36'0 0.0
2018-Feb-14 01:29N 52°28' E 004°36'0 0.0
2018-Feb-14 00:56N 52°28' E 004°36'0 0.0
2018-Feb-14 00:29N 52°28' E 004°36'0 0.0
2018-Feb-13 23:59N 52°28' E 004°36'0 0.0
2018-Feb-13 23:26N 52°28' E 004°36'0 0.0
2018-Feb-13 22:59N 52°28' E 004°36'0 0.0
2018-Feb-13 22:29N 52°28' E 004°36'0 0.0
2018-Feb-13 21:59N 52°28' E 004°36'0 0.0
2018-Feb-13 21:29N 52°28' E 004°36'0 0.0
2018-Feb-13 20:56N 52°28' E 004°36'0 0.0
2018-Feb-13 20:29N 52°28' E 004°36'0 0.0
2018-Feb-13 19:59N 52°28' E 004°36'0 0.0
2018-Feb-13 19:26N 52°28' E 004°36'0 0.0
2018-Feb-13 18:50N 52°28' E 004°36'0 0.0
2018-Feb-13 18:29N 52°28' E 004°36'0 0.0
2018-Feb-13 17:56N 52°28' E 004°36'0 0.0
2018-Feb-13 17:29N 52°28' E 004°36'0 0.0
2018-Feb-13 16:59N 52°28' E 004°36'0 0.0
2018-Feb-13 16:26N 52°28' E 004°36'0 0.0
2018-Feb-13 15:56N 52°28' E 004°36'0 0.0
2018-Feb-13 15:29N 52°28' E 004°36'0 0.0
2018-Feb-13 14:59N 52°28' E 004°36'0 0.0
2018-Feb-13 14:26N 52°28' E 004°36'0 0.0
2018-Feb-13 13:59N 52°28' E 004°36'0 0.0
2018-Feb-13 13:29N 52°28' E 004°36'0 0.0
2018-Feb-13 12:59N 52°28' E 004°36'0 0.0
2018-Feb-13 12:26N 52°28' E 004°36'0 0.0
2018-Feb-13 11:59N 52°28' E 004°36'0 0.0
2018-Feb-13 11:29N 52°28' E 004°36'0 0.0
2018-Feb-13 10:59N 52°28' E 004°36'0 0.0
2018-Feb-13 10:29N 52°28' E 004°36'0 0.0
2018-Feb-13 09:59N 52°28' E 004°36'0 0.0
2018-Feb-13 09:29N 52°28' E 004°36'0 0.0
2018-Feb-13 08:59N 52°28' E 004°36'0 0.0
2018-Feb-13 08:29N 52°28' E 004°36'0 0.0
2018-Feb-13 07:59N 52°28' E 004°36'0 0.0
2018-Feb-13 07:29N 52°28' E 004°36'0 0.0
2018-Feb-13 06:56N 52°28' E 004°36'0 0.0
2018-Feb-13 06:26N 52°28' E 004°36'0 0.0
2018-Feb-13 05:56N 52°28' E 004°36'0 0.0
2018-Feb-13 05:29N 52°28' E 004°36'0 0.0
2018-Feb-13 04:59N 52°28' E 004°36'0 0.0
2018-Feb-13 04:29N 52°28' E 004°36'0 0.0
2018-Feb-13 03:59N 52°28' E 004°36'0 0.0
2018-Feb-13 03:29N 52°28' E 004°36'0 0.0
2018-Feb-13 02:59N 52°28' E 004°36'0 0.0
2018-Feb-13 02:29N 52°28' E 004°36'0 0.0
2018-Feb-13 01:59N 52°28' E 004°36'0 0.0
2018-Feb-13 01:11N 52°28' E 004°36'0 0.0
2018-Feb-13 00:59N 52°28' E 004°36'0 0.0
2018-Feb-13 00:29N 52°28' E 004°36'0 0.0
2018-Feb-12 23:59N 52°28' E 004°36'0 0.0
2018-Feb-12 23:26N 52°28' E 004°36'0 0.0
2018-Feb-12 22:56N 52°28' E 004°36'0 0.0
2018-Feb-12 22:29N 52°28' E 004°36'0 0.0
2018-Feb-12 21:56N 52°28' E 004°36'0 0.0
2018-Feb-12 21:29N 52°28' E 004°36'0 0.0
2018-Feb-12 20:59N 52°28' E 004°36'0 0.0
2018-Feb-12 20:29N 52°28' E 004°36'0 0.0
2018-Feb-12 19:59N 52°28' E 004°36'0 0.1
2018-Feb-12 19:23N 52°28' E 004°36'0 0.0
2018-Feb-12 18:59N 52°28' E 004°36'0 0.0
2018-Feb-12 18:29N 52°28' E 004°36'0 0.0
2018-Feb-12 17:59N 52°28' E 004°36'0 0.0
2018-Feb-12 17:29N 52°28' E 004°36'0 0.0
2018-Feb-12 16:59N 52°28' E 004°36'0 0.0
2018-Feb-12 16:29N 52°28' E 004°36'0 0.0
2018-Feb-12 15:59N 52°28' E 004°36'0 0.0
2018-Feb-12 15:17N 52°28' E 004°36'0 0.0
2018-Feb-12 14:59N 52°28' E 004°36'0 0.0
2018-Feb-12 14:29N 52°28' E 004°36'0 0.0
2018-Feb-12 13:56N 52°28' E 004°36'0 0.0
2018-Feb-12 13:29N 52°28' E 004°36'0 0.0
2018-Feb-12 12:59N 52°28' E 004°36'0 0.0
2018-Feb-12 12:29N 52°28' E 004°36'0 0.0
2018-Feb-12 11:59N 52°28' E 004°36'0 0.0
2018-Feb-12 11:29N 52°28' E 004°36'0 0.0
2018-Feb-12 10:59N 52°28' E 004°36'0 0.0
2018-Feb-12 10:29N 52°28' E 004°36'0 0.0
2018-Feb-12 09:56N 52°28' E 004°36'0 0.0
2018-Feb-12 09:29N 52°28' E 004°36'0 0.0
2018-Feb-12 08:59N 52°28' E 004°36'0 0.0
2018-Feb-12 08:29N 52°28' E 004°36'0 0.0
2018-Feb-12 07:59N 52°28' E 004°36'0 0.0
2018-Feb-12 07:29N 52°28' E 004°36'0 0.0
2018-Feb-12 06:56N 52°28' E 004°36'0 0.0
2018-Feb-12 06:29N 52°28' E 004°36'0 0.0
2018-Feb-12 05:59N 52°28' E 004°36'0 0.0
2018-Feb-12 05:29N 52°28' E 004°36'0 0.0
2018-Feb-12 04:59N 52°28' E 004°36'0 0.0
2018-Feb-12 04:29N 52°28' E 004°36'0 0.0
2018-Feb-12 03:59N 52°28' E 004°36'0 0.0
2018-Feb-12 03:29N 52°28' E 004°36'0 0.0
2018-Feb-12 02:59N 52°28' E 004°36'0 0.0
2018-Feb-12 02:29N 52°28' E 004°36'0 0.0
2018-Feb-12 01:59N 52°28' E 004°36'0 0.0
2018-Feb-12 01:26N 52°28' E 004°36'0 0.0
2018-Feb-12 00:59N 52°28' E 004°36'0 0.0
2018-Feb-12 00:29N 52°28' E 004°36'0 0.0
2018-Feb-11 23:59N 52°28' E 004°36'0 0.0
2018-Feb-11 23:29N 52°28' E 004°36'0 0.0
2018-Feb-11 22:59N 52°28' E 004°36'0 0.0
2018-Feb-11 22:29N 52°28' E 004°36'0 0.0
2018-Feb-11 21:56N 52°28' E 004°36'0 0.0
2018-Feb-11 21:29N 52°28' E 004°36'0 0.0
2018-Feb-11 20:59N 52°28' E 004°36'0 0.0
2018-Feb-11 20:29N 52°28' E 004°36'0 0.0
2018-Feb-11 19:56N 52°28' E 004°36'0 0.0
2018-Feb-11 19:29N 52°28' E 004°36'0 0.0
2018-Feb-11 18:59N 52°28' E 004°36'0 0.0
2018-Feb-11 18:28N 52°28' E 004°36'0 0.0
2018-Feb-11 17:58N 52°28' E 004°36'0 0.0
2018-Feb-11 17:28N 52°28' E 004°36'0 0.0
2018-Feb-11 16:55N 52°28' E 004°36'0 0.0
2018-Feb-11 16:28N 52°28' E 004°36'0 0.0
2018-Feb-11 15:58N 52°28' E 004°36'0 0.0
2018-Feb-11 15:28N 52°28' E 004°36'0 0.0
2018-Feb-11 14:58N 52°28' E 004°36'0 0.0
2018-Feb-11 14:25N 52°28' E 004°36'0 0.0
2018-Feb-11 13:58N 52°28' E 004°36'0 0.0
2018-Feb-11 13:28N 52°28' E 004°36'0 0.0
2018-Feb-11 12:58N 52°28' E 004°36'0 0.0
2018-Feb-11 12:28N 52°28' E 004°36'0 0.0
2018-Feb-11 11:58N 52°28' E 004°36'0 0.0
2018-Feb-11 11:28N 52°28' E 004°36'0 0.0
2018-Feb-11 10:55N 52°28' E 004°36'0 0.0
2018-Feb-11 10:28N 52°28' E 004°36'0 0.0
2018-Feb-11 09:58N 52°28' E 004°36'0 0.0
2018-Feb-11 09:28N 52°28' E 004°36'0 0.0
2018-Feb-11 08:58N 52°28' E 004°36'0 0.0
2018-Feb-11 08:28N 52°28' E 004°36'0 0.0
2018-Feb-11 07:52N 52°28' E 004°36'0 0.0
2018-Feb-11 07:28N 52°28' E 004°36'0 0.0
2018-Feb-11 06:43N 52°28' E 004°36'0 0.0
2018-Feb-11 06:28N 52°28' E 004°36'0 0.0
2018-Feb-11 05:52N 52°28' E 004°36'0 0.0
2018-Feb-11 05:28N 52°28' E 004°36'0 0.0
2018-Feb-11 04:58N 52°28' E 004°36'0 0.0
2018-Feb-11 04:28N 52°28' E 004°36'0 0.0
2018-Feb-11 03:58N 52°28' E 004°36'0 0.0
2018-Feb-11 03:28N 52°28' E 004°36'0 0.0
2018-Feb-11 02:55N 52°28' E 004°36'0 0.0
2018-Feb-11 02:28N 52°28' E 004°36'0 0.0
2018-Feb-11 01:58N 52°28' E 004°36'0 0.0
2018-Feb-11 01:28N 52°28' E 004°36'0 0.0
2018-Feb-11 00:58N 52°28' E 004°36'0 0.0
2018-Feb-11 00:28N 52°28' E 004°36'0 0.0
2018-Feb-10 23:58N 52°28' E 004°36'0 0.0
2018-Feb-10 23:28N 52°28' E 004°36'0 0.0
2018-Feb-10 22:58N 52°28' E 004°36'0 0.0
2018-Feb-10 22:28N 52°28' E 004°36'0 0.0
2018-Feb-10 21:55N 52°28' E 004°36'0 0.0
2018-Feb-10 21:28N 52°28' E 004°36'0 0.0
2018-Feb-10 20:58N 52°28' E 004°36'0 0.0
2018-Feb-10 20:28N 52°28' E 004°36'0 0.0
2018-Feb-10 19:58N 52°28' E 004°36'0 0.0
2018-Feb-10 19:28N 52°28' E 004°36'0 0.0
2018-Feb-10 18:58N 52°28' E 004°36'  

Dump ship's entire track history